METAR Data
IDs: Format: Raw Decoded Include TAF

Data at: 0119 UTC 06 Dec 2019

KDKX 060115Z AUTO 00000KT 10SM CLR 04/02 A3015 RMK A01
KDKX 060055Z AUTO 00000KT 10SM CLR 04/02 A3015 RMK A01
KDKX 060035Z AUTO 00000KT 10SM CLR 05/02 A3014 RMK A01
KDKX 060015Z AUTO 00000KT 10SM CLR 05/03 A3014 RMK A01
KDKX 052355Z AUTO 00000KT 10SM CLR 06/02 A3014 RMK A01
KDKX 052335Z AUTO 00000KT 10SM CLR 06/02 A3014 RMK A01
KDKX 052315Z AUTO 00000KT 10SM CLR 07/02 A3014 RMK A01
KDKX 052255Z AUTO 00000KT 10SM CLR 09/03 A3013 RMK A01
KDKX 052235Z AUTO 00000KT 10SM CLR 09/01 A3013 RMK A01
KDKX 052215Z AUTO 00000KT 10SM CLR 11/03 A3013 RMK A01
KDKX 052155Z AUTO 00000KT 10SM CLR 13/M00 A3013 RMK A01
KDKX 052135Z AUTO 25004KT 10SM CLR 14/M01 A3014 RMK A01
KDKX 052115Z AUTO 26004KT 10SM CLR 15/M02 A3013 RMK A01
KDKX 052055Z AUTO 26003KT 10SM CLR 15/M03 A3013 RMK A01
KDKX 052035Z AUTO 27004KT 10SM CLR 15/M02 A3013 RMK A01
KDKX 052015Z AUTO 28006KT 10SM CLR 15/M02 A3012 RMK A01
KDKX 051955Z AUTO 26005KT 10SM CLR 15/M01 A3012 RMK A01
KDKX 051935Z AUTO 22005KT 10SM CLR 14/M01 A3013 RMK A01
KDKX 051915Z AUTO 22007KT 10SM CLR 14/M01 A3013 RMK A01
KDKX 051855Z AUTO VRB06KT 10SM CLR 14/M01 A3013 RMK A01
KDKX 051835Z AUTO 24007KT 10SM CLR 13/M01 A3013 RMK A01
KDKX 051815Z AUTO 23005KT 10SM CLR 13/M01 A3013 RMK A01
KDKX 051755Z AUTO 21006KT 10SM CLR 13/M01 A3014 RMK A01
KDKX 051735Z AUTO 27007KT 240V300 10SM CLR 13/M01 A3014 RMK A01
KDKX 051715Z AUTO 26005G10KT 10SM CLR 12/M00 A3015 RMK A01
KDKX 051655Z AUTO 00000KT 10SM CLR 12/M00 A3016 RMK A01
KDKX 051615Z AUTO 30005KT 10SM CLR 10/M00 A3017 RMK A01
KDKX 051555Z AUTO 30003KT 10SM CLR 10/00 A3017 RMK A01
KDKX 051535Z AUTO VRB03KT 10SM CLR 09/01 A3016 RMK A01
KDKX 051515Z AUTO 00000KT 10SM CLR 07/02 A3016 RMK A01
KDKX 051455Z AUTO 00000KT 10SM CLR 06/02 A3015 RMK A01
KDKX 051435Z AUTO 00000KT 10SM CLR 04/02 A3014 RMK A01
KDKX 051415Z AUTO 00000KT 10SM CLR 03/02 A3013 RMK A01
KDKX 051355Z AUTO 00000KT M1/4SM FG VV000 01/01 A3013 RMK A01
KDKX 051335Z AUTO 00000KT M1/4SM FZFG BKN001 M00/M00 A3012 RMK A01
KDKX 051315Z AUTO 00000KT M1/4SM FZFG OVC002 M00/M00 A3012 RMK A01
KDKX 051255Z AUTO 00000KT M1/4SM FZFG OVC002 M01/M01 A3011 RMK A01
KDKX 051235Z AUTO 00000KT M1/4SM FZFG OVC002 M01/M01 A3011 RMK A01
KDKX 051215Z AUTO 00000KT M1/4SM FZFG OVC002 M01/M01 A3010 RMK A01
KDKX 051155Z AUTO 00000KT 1/4SM FZFG BKN002 M01/M01 A3009 RMK A01
KDKX 051135Z AUTO 00000KT 10SM CLR M01/M01 A3008 RMK A01
KDKX 051115Z AUTO 00000KT 3/4SM BR VV005 M00/M01 A3008 RMK A01
KDKX 051055Z AUTO 00000KT 10SM CLR M00/M01 A3007 RMK A01
KDKX 051035Z AUTO 00000KT 10SM CLR M00/M01 A3007 RMK A01
KDKX 051015Z AUTO 00000KT 10SM CLR M01/M02 A3006 RMK A01
KDKX 050955Z AUTO 00000KT 10SM CLR M00/M01 A3007 RMK A01
KDKX 050935Z AUTO 00000KT 10SM CLR M01/M02 A3006 RMK A01
KDKX 050915Z AUTO 00000KT 10SM CLR M00/M01 A3005 RMK A01
KDKX 050855Z AUTO 00000KT 10SM CLR 00/M01 A3005 RMK A01
KDKX 050835Z AUTO 00000KT 10SM CLR 01/M01 A3004 RMK A01
KDKX 050810Z AUTO 00000KT 10SM CLR 01/M01 A3004 RMK A01
KDKX 050755Z AUTO 00000KT 10SM CLR 01/M00 A3003 RMK A01
KDKX 050735Z AUTO 00000KT 10SM CLR 01/M01 A3003 RMK A01
KDKX 050715Z AUTO 00000KT 10SM CLR 01/M01 A3002 RMK A01
KDKX 050655Z AUTO 00000KT 10SM CLR 02/00 A3002 RMK A01
KDKX 050635Z AUTO 00000KT 10SM CLR 02/01 A3001 RMK A01
KDKX 050615Z AUTO 00000KT 10SM CLR 03/00 A3000 RMK A01
KDKX 050555Z AUTO 00000KT 10SM CLR 03/01 A2999 RMK A01
KDKX 050535Z AUTO 00000KT 10SM CLR 03/01 A2999 RMK A01
KDKX 050515Z AUTO 27003KT 10SM CLR 05/01 A2999 RMK A01
KDKX 050455Z AUTO 00000KT 10SM CLR 07/01 A2999 RMK A01
KDKX 050435Z AUTO 26004KT 10SM CLR 05/M00 A2998 RMK A01
KDKX 050415Z AUTO 27004KT 10SM CLR 06/M01 A2998 RMK A01
KDKX 050355Z AUTO 00000KT 10SM CLR 08/M01 A2997 RMK A01
KDKX 050335Z AUTO 28003KT 10SM CLR 08/M02 A2996 RMK A01
KDKX 050315Z AUTO VRB03KT 10SM CLR 08/M02 A2996 RMK A01
KDKX 050255Z AUTO 29004KT 10SM CLR 09/M02 A2996 RMK A01
KDKX 050235Z AUTO 29004KT 10SM CLR 09/M02 A2995 RMK A01
KDKX 050215Z AUTO 28004KT 10SM CLR 09/M01 A2994 RMK A01
KDKX 050155Z AUTO 26003KT 10SM CLR 09/M01 A2994 RMK A01
KDKX 050135Z AUTO 29004KT 10SM CLR 09/M01 A2994 RMK A01
KDKX 050115Z AUTO 26004KT 10SM CLR 09/M02 A2993 RMK A01
KDKX 050055Z AUTO 25005KT 10SM CLR 08/M03 A2993 RMK A01
KDKX 050035Z AUTO 23006KT 10SM CLR 10/M03 A2992 RMK A01
KDKX 050015Z AUTO 26006G11KT 10SM CLR 10/M03 A2991 RMK A01
KDKX 042355Z AUTO 25006KT 10SM CLR 10/M03 A2990 RMK A01
KDKX 042335Z AUTO 24006G11KT 10SM CLR 11/M03 A2989 RMK A01
KDKX 042315Z AUTO 26006KT 10SM CLR 11/M03 A2988 RMK A01
KDKX 042255Z AUTO 26004KT 10SM CLR 11/M03 A2987 RMK A01
KDKX 042235Z AUTO VRB06KT 10SM CLR 12/M02 A2987 RMK A01
KDKX 042215Z AUTO 26005KT 10SM CLR 11/M01 A2986 RMK A01
KDKX 042155Z AUTO 24007KT 10SM CLR 12/M00 A2985 RMK A01
KDKX 042135Z AUTO 24010KT 10SM CLR 12/M00 A2985 RMK A01
KDKX 042115Z AUTO 24011KT 10SM CLR 13/M00 A2985 RMK A01
KDKX 042055Z AUTO 26009G14KT CLR 13/M00 A2984 RMK A01
KDKX 042035Z AUTO 25007G16KT 220V280 10SM CLR 13/M00 A2984 RMK A01
KDKX 042015Z AUTO 23011G18KT 10SM CLR 13/M00 A2984 RMK A01
KDKX 041955Z AUTO 24013G18KT 10SM CLR 12/00 A2984 RMK A01
KDKX 041935Z AUTO 24012G17KT 10SM CLR 12/00 A2983 RMK A01
KDKX 041915Z AUTO 24011G17KT 10SM CLR 12/00 A2983 RMK A01
KDKX 041855Z AUTO 25012G17KT 10SM CLR 12/00 A2983 RMK A01
KDKX 041835Z AUTO 26010G17KT 230V290 10SM CLR 12/M00 A2984 RMK A01
KDKX 041815Z AUTO 26010G17KT 10SM CLR 11/00 A2985 RMK A01
KDKX 041755Z AUTO 24009KT 10SM CLR 11/01 A2985 RMK A01
KDKX 041735Z AUTO 25008G14KT 230V290 10SM CLR 11/01 A2986 RMK A01
KDKX 041715Z AUTO 25007G15KT 230V290 10SM CLR 10/01 A2987 RMK A01
KDKX 041655Z AUTO 25010G17KT 10SM CLR 09/01 A2988 RMK A01
KDKX 041635Z AUTO 23009G15KT 200V260 10SM CLR 09/01 A2988 RMK A01
KDKX 041615Z AUTO 23010KT 10SM CLR 09/01 A2988 RMK A01
KDKX 041555Z AUTO 24011G16KT 10SM CLR 09/01 A2988 RMK A01
KDKX 041535Z AUTO 25011G17KT 10SM CLR 08/01 A2989 RMK A01
KDKX 041515Z AUTO 24012G17KT 10SM CLR 08/01 A2989 RMK A01
KDKX 041455Z AUTO 24011G17KT 10SM CLR 07/00 A2989 RMK A01
KDKX 041435Z AUTO 24009KT 10SM CLR 06/00 A2988 RMK A01
KDKX 041415Z AUTO 25007G13KT 10SM CLR 06/00 A2988 RMK A01
KDKX 041355Z AUTO 25008KT 10SM CLR 05/M00 A2988 RMK A01
KDKX 041335Z AUTO 25006KT 10SM CLR 04/M00 A2988 RMK A01